VLLN

Luang Namtha Airport

Luang Namtha, Lao People’s Democratic Republic
TAF VLLN 181700Z 1818/1918 12004KT 8000 SCT020 BKN100 TEMPO 1818/1822 3000 BR SCT010 BKN100
Issued Valid From Valid To
Jul-18 @ 17:00 UTC
(5 hours ago)
Jul-18 @ 18:00 UTC
(4 hours ago)
Jul-19 @ 18:00 UTC
(in 20 hours)
Jul-18 @ 18:00 to Jul-19 @ 18:00
TAF VLLN 181700Z 1818/1918 12004KT 8000 SCT020 BKN100
Wind Visibility Clouds
120° at 4 knots 7,998 meters
  • Scattered at 2,000' AGL
  • Broken at 10,000' AGL
Expired Click to View Jul-18 @ 18:00 to Jul-18 @ 22:00
TEMPO 1818/1822 3000 BR SCT010 BKN100
Visibility Clouds Conditions
2,993 meters
  • Scattered at 1,000' AGL
  • Broken at 10,000' AGL
  • Mist
TAF VLLN 181700Z 1818/1918 12004KT 8000 SCT020 BKN100 TEMPO 1818/1822 3000 BR SCT010 BKN100
Issued Jul-18 @ 17:00 UTC
(5 hours ago)
Valid From Jul-18 @ 18:00 UTC
(4 hours ago)
Valid To Jul-19 @ 18:00 UTC
(in 20 hours)
Jul-18 @ 18:00 - Jul-19 @ 18:00
Wind Visibility
120° at 4 knots 7,998 meters
Clouds
  • Scattered at 2,000' AGL
  • Broken at 10,000' AGL
Jul-18 @ 18:00 - Jul-18 @ 22:00
Clouds
  • Scattered at 1,000' AGL
  • Broken at 10,000' AGL
Conditions
  • Mist